Time;durP1;ratioP1;P1;durP2;ratioP2;P2;SDS_P1;SDS_P2;PMS_P1;PMS_P2;Temp;Humidity;BMP_temperature;BMP_pressure;BME280_temperature;BME280_humidity;BME280_pressure;Samples;Min_cycle;Max_cycle;Signal;HPM_P1;HPM_P2
2022/11/28 00:01:40;;;;;;;32.90;29.40;;;;;;;10.46;86.31;101276.34;5041657;28;20049;-65
2022/11/28 00:04:07;;;;;;;;;;;;;;;10.24;87.90;101295.84;5047858;28;20049;-64
2022/11/28 00:06:40;;;;;;;30.10;27.03;;;;;;;10.41;87.12;101293.00;5038002;28;19983;-65
2022/11/28 00:09:07;;;;;;;33.07;30.07;;;;;;;10.40;87.26;101288.53;5037525;28;20046;-65
2022/11/28 00:11:34;;;;;;;34.47;30.97;;;;;;;10.43;87.35;101288.03;5043209;28;20054;-65
2022/11/28 00:14:01;;;;;;;32.93;29.80;;;;;;;10.48;87.18;101290.84;5034969;28;20060;-65
2022/11/28 00:16:28;;;;;;;33.07;29.57;;;;;;;10.45;87.10;101296.97;5035028;28;20057;-65
2022/11/28 00:18:55;;;;;;;33.47;30.63;;;;;;;10.43;86.79;101288.88;5034279;28;20053;-65
2022/11/28 00:21:22;;;;;;;39.07;35.17;;;;;;;10.39;86.80;101287.69;5051126;28;20419;-65
2022/11/28 00:23:49;;;;;;;35.67;32.47;;;;;;;10.37;86.81;101283.47;5052206;28;20049;-65
2022/11/28 00:26:25;;;;;;;36.60;33.33;;;;;;;10.35;86.22;101299.63;5038621;28;20415;-64
2022/11/28 00:28:53;;;;;;;37.90;34.17;;;;;;;10.35;86.54;101291.25;5041628;28;20049;-64
2022/11/28 00:31:23;;;;;;;37.07;33.37;;;;;;;10.30;86.30;101294.00;5041473;28;20052;-64
2022/11/28 00:33:50;;;;;;;;;;;;;;;9.90;87.77;101295.13;5043416;28;20561;-65
2022/11/28 00:36:18;;;;;;;38.30;34.67;;;;;;;10.11;86.84;101299.88;5042366;28;19921;-65
2022/11/28 00:38:45;;;;;;;38.57;34.67;;;;;;;10.16;86.85;101299.09;5035688;28;20076;-65
2022/11/28 00:41:15;;;;;;;38.00;32.83;;;;;;;10.17;86.87;101301.63;5041201;28;20052;-65
2022/11/28 00:43:43;;;;;;;58.47;54.08;;;;;;;10.18;86.98;101311.69;5045701;28;20056;-65
2022/11/28 00:46:11;;;;;;;36.33;32.03;;;;;;;10.11;87.10;101297.06;5039619;28;20060;-65
2022/11/28 00:48:38;;;;;;;33.33;30.23;;;;;;;10.15;87.07;101298.28;5046539;28;20055;-65
2022/11/28 00:51:06;;;;;;;35.43;32.30;;;;;;;10.16;87.05;101299.09;5044754;28;20042;-65
2022/11/28 00:53:34;;;;;;;34.43;30.50;;;;;;;10.17;87.20;101304.41;5037137;28;20416;-65
2022/11/28 00:56:04;;;;;;;33.90;30.77;;;;;;;10.15;86.94;101298.28;5042868;28;20061;-65
2022/11/28 00:58:33;;;;;;;30.40;27.83;;;;;;;10.12;86.97;101293.19;5034226;28;20056;-65
2022/11/28 01:01:22;;;;;;;31.10;28.50;;;;;;;10.09;86.93;101304.03;5038287;28;20049;-64
2022/11/28 01:03:51;;;;;;;34.03;30.67;;;;;;;10.13;87.26;101296.84;5045702;28;20053;-65
2022/11/28 01:06:21;;;;;;;30.43;27.57;;;;;;;10.14;87.13;101296.56;5039379;28;20052;-65
2022/11/28 01:08:47;;;;;;;32.75;29.83;;;;;;;10.12;87.36;101296.00;5037968;28;20045;-65
2022/11/28 01:11:17;;;;;;;30.20;27.70;;;;;;;10.13;87.00;101289.31;5042188;28;20051;-66
2022/11/28 01:13:44;;;;;;;31.23;28.50;;;;;;;10.06;87.21;101293.41;5050583;28;20057;-66
2022/11/28 01:16:11;;;;;;;31.43;28.07;;;;;;;9.97;87.47;101284.63;5049524;28;20194;-64
2022/11/28 01:18:38;;;;;;;30.43;27.67;;;;;;;10.08;87.52;101293.97;5042205;28;20056;-66
2022/11/28 01:21:06;;;;;;;29.50;26.43;;;;;;;10.14;87.66;101290.13;5036869;28;20053;-66
2022/11/28 01:23:34;;;;;;;30.73;27.93;;;;;;;10.13;87.80;101280.09;5047239;28;20053;-66
2022/11/28 01:26:01;;;;;;;28.63;26.17;;;;;;;10.15;87.84;101281.53;5032493;28;20065;-65
2022/11/28 01:28:28;;;;;;;29.33;26.90;;;;;;;10.24;87.85;101290.25;5034501;28;20504;-66
2022/11/28 01:30:55;;;;;;;26.87;24.57;;;;;;;10.24;87.59;101295.00;5034538;28;20056;-64
2022/11/28 01:33:22;;;;;;;28.37;25.57;;;;;;;10.23;87.60;101288.59;5035464;28;20053;-64
2022/11/28 01:35:57;;;;;;;26.30;24.10;;;;;;;10.17;87.56;101293.25;5040393;28;20056;-65
2022/11/28 01:38:24;;;;;;;27.70;25.20;;;;;;;10.17;87.75;101296.03;5033290;28;20045;-64
2022/11/28 01:40:52;;;;;;;29.07;26.33;;;;;;;10.15;87.84;101294.59;5037411;28;20048;-65
2022/11/28 01:43:19;;;;;;;29.20;26.43;;;;;;;10.12;88.12;101293.19;5035874;28;20052;-65
2022/11/28 01:45:46;;;;;;;30.67;27.97;;;;;;;10.12;88.55;101297.91;5038702;28;20045;-66
2022/11/28 01:48:17;;;;;;;31.27;28.47;;;;;;;10.15;88.69;101320.59;5042610;28;20051;-66
2022/11/28 01:50:46;;;;;;;31.13;28.10;;;;;;;10.23;89.22;101319.28;5039523;28;20064;-66
2022/11/28 01:53:13;;;;;;;28.48;25.95;;;;;;;10.21;89.33;101308.38;5040706;28;20051;-66
2022/11/28 01:55:54;;;;;;;28.97;26.40;;;;;;;10.17;89.22;101293.25;5032611;28;20061;-66
2022/11/28 01:58:22;;;;;;;48.00;44.53;;;;;;;10.23;89.44;101293.34;5033220;28;20381;-66
2022/11/28 02:00:48;;;;;;;28.67;26.27;;;;;;;10.21;89.20;101293.56;5032233;28;20053;-65
2022/11/28 02:03:29;;;;;;;28.17;26.13;;;;;;;10.18;89.11;101289.34;5044174;28;20050;-65
2022/11/28 02:05:56;;;;;;;30.40;28.13;;;;;;;10.27;89.03;101286.16;5044427;28;20044;-65
2022/11/28 02:08:24;;;;;;;28.50;26.07;;;;;;;10.21;88.94;101291.63;5064995;28;20136;-65
2022/11/28 02:11:06;;;;;;;29.63;27.27;;;;;;;10.16;88.24;101280.41;5040285;28;20496;-66
2022/11/28 02:13:39;;;;;;;27.90;25.83;;;;;;;10.17;88.30;101276.50;5032428;28;20397;-66
2022/11/28 02:16:10;;;;;;;29.00;26.53;;;;;;;10.14;88.22;101267.81;5041131;28;20071;-65
2022/11/28 02:19:15;;;;;;;28.63;26.00;;;;;;;10.08;88.02;101280.00;5040316;28;20053;-65
2022/11/28 02:21:59;;;;;;;28.63;26.17;;;;;;;10.16;88.20;101294.38;5042652;28;20064;-66
2022/11/28 02:24:32;;;;;;;27.77;25.60;;;;;;;10.18;88.02;101296.88;5042746;28;20423;-66
2022/11/28 02:27:18;;;;;;;26.33;24.07;;;;;;;10.11;87.90;101293.44;5035203;28;20053;-66
2022/11/28 02:29:57;;;;;;;27.97;25.10;;;;;;;10.21;87.79;101291.63;5039662;28;20514;-65
2022/11/28 02:32:35;;;;;;;27.27;24.97;;;;;;;10.25;87.90;101289.16;5038549;28;20052;-65
2022/11/28 02:35:14;;;;;;;29.77;27.00;;;;;;;10.20;87.68;101295.53;5042407;28;20475;-65
2022/11/28 02:37:49;;;;;;;29.93;27.47;;;;;;;10.16;87.96;101287.94;5049760;28;20044;-65
2022/11/28 02:40:35;;;;;;;27.30;25.10;;;;;;;10.08;87.89;101280.84;5039681;28;20049;-65
2022/11/28 02:43:40;;;;;;;28.57;26.13;;;;;;;9.98;87.72;101280.72;5041616;28;20050;-65
2022/11/28 02:46:27;;;;;;;28.33;26.27;;;;;;;9.78;87.70;101292.47;5036294;28;20049;-65
2022/11/28 02:49:12;;;;;;;30.03;27.50;;;;;;;9.66;88.23;101284.19;5040681;28;20055;-65
2022/11/28 02:51:50;;;;;;;28.57;26.57;;;;;;;9.63;88.49;101286.66;5039477;28;20079;-64
2022/11/28 02:54:20;;;;;;;28.70;26.37;;;;;;;9.57;88.71;101291.31;5038037;28;20049;-64
2022/11/28 02:56:49;;;;;;;26.92;25.02;;;;;;;9.58;89.19;101306.94;5030612;28;20492;-65
2022/11/28 02:59:41;;;;;;;29.37;27.37;;;;;;;9.47;89.25;101303.16;5034533;28;20496;-65
2022/11/28 03:02:22;;;;;;;28.33;25.87;;;;;;;9.49;89.63;101300.94;5037055;28;20045;-65
2022/11/28 03:05:06;;;;;;;29.73;27.73;;;;;;;9.57;89.66;101312.75;5032144;28;20042;-65
2022/11/28 03:07:45;;;;;;;28.47;26.50;;;;;;;9.60;90.07;101306.69;5037837;28;20061;-64
2022/11/28 03:10:34;;;;;;;27.33;25.43;;;;;;;9.63;90.11;101306.16;5043301;28;20503;-64
2022/11/28 03:13:11;;;;;;;27.30;25.57;;;;;;;9.77;90.14;101310.28;5032116;28;20050;-65
2022/11/28 03:16:24;;;;;;;27.77;25.50;;;;;;;9.79;90.27;101315.63;5031457;28;20054;-65
2022/11/28 03:18:56;;;;;;;26.47;24.30;;;;;;;9.88;89.85;101330.78;5029485;28;20118;-66
2022/11/28 03:21:51;;;;;;;27.50;25.47;;;;;;;9.81;89.90;101319.84;5035565;28;20065;-65
2022/11/28 03:24:24;;;;;;;27.90;25.63;;;;;;;9.76;89.85;101311.38;5030738;28;20057;-66
2022/11/28 03:26:56;;;;;;;25.83;24.23;;;;;;;9.71;89.93;101314.97;5031888;28;20052;-65
2022/11/28 03:29:38;;;;;;;28.93;26.50;;;;;;;9.62;89.64;101313.69;5041098;28;20057;-65
2022/11/28 03:32:10;;;;;;;27.90;25.57;;;;;;;9.64;89.33;101319.00;5040132;28;20420;-64
2022/11/28 03:34:43;;;;;;;25.47;23.50;;;;;;;9.63;89.69;101308.97;5031638;28;20056;-64
2022/11/28 03:37:16;;;;;;;28.37;26.07;;;;;;;9.64;89.65;101310.63;5043928;28;20065;-65
2022/11/28 03:39:50;;;;;;;25.30;23.60;;;;;;;9.54;89.16;101303.00;5049837;28;20102;-65
2022/11/28 03:42:23;;;;;;;26.70;24.53;;;;;;;9.47;89.42;101308.75;5044584;28;20045;-65
2022/11/28 03:45:22;;;;;;;39.57;26.23;;;;;;;9.24;89.02;101298.59;5042162;28;20049;-65
2022/11/28 03:47:57;;;;;;;23.37;22.03;;;;;;;9.07;89.07;101303.34;5038569;28;20053;-65
2022/11/28 03:50:35;;;;;;;23.07;21.73;;;;;;;8.93;89.35;101302.81;5033303;28;20065;-64
2022/11/28 03:53:07;;;;;;;21.80;20.70;;;;;;;8.81;89.62;101298.41;5035476;28;20056;-65
2022/11/28 03:55:40;;;;;;;25.50;24.00;;;;;;;8.84;89.80;101314.63;5039194;28;20045;-64
2022/11/28 03:58:30;;;;;;;27.67;26.00;;;;;;;8.80;89.96;101303.13;5037440;28;20412;-65
2022/11/28 04:01:27;;;;;;;29.48;27.65;;;;;;;8.75;90.34;101308.59;5033661;28;20128;-65
2022/11/28 04:04:15;;;;;;;29.97;27.93;;;;;;;8.90;90.81;101305.25;5047157;28;20424;-64
2022/11/28 04:07:02;;;;;;;30.40;28.40;;;;;;;8.80;90.87;101286.41;5035993;28;20053;-65
2022/11/28 04:09:38;;;;;;;29.13;27.17;;;;;;;9.04;91.09;101314.97;5038285;28;20056;-65
2022/11/28 04:12:34;;;;;;;27.23;25.40;;;;;;;8.89;90.57;101311.91;5036513;28;20049;-65
2022/11/28 04:15:08;;;;;;;29.20;26.93;;;;;;;8.95;90.82;101319.25;5040242;28;20516;-64
2022/11/28 04:17:46;;;;;;;28.30;25.93;;;;;;;8.88;90.85;101290.72;5035178;28;20068;-64
2022/11/28 04:20:38;;;;;;;26.97;25.20;;;;;;;8.90;90.54;101302.47;5046598;28;20412;-65
2022/11/28 04:23:17;;;;;;;27.23;25.37;;;;;;;8.83;90.56;101307.34;5040657;28;20052;-64
2022/11/28 04:25:51;;;;;;;25.67;24.17;;;;;;;8.74;90.58;101307.75;5044859;28;20057;-65
2022/11/28 04:28:23;;;;;;;24.63;23.13;;;;;;;8.62;90.62;101306.97;5034764;28;20072;-64
2022/11/28 04:30:52;;;;;;;25.10;23.73;;;;;;;8.49;90.60;101307.28;5043343;28;20534;-65
2022/11/28 04:33:22;;;;;;;27.10;25.50;;;;;;;8.42;90.57;101307.41;5041740;28;20045;-65
2022/11/28 04:35:52;;;;;;;25.80;24.07;;;;;;;8.32;90.69;101310.81;5041385;28;20053;-65
2022/11/28 04:38:22;;;;;;;24.10;22.80;;;;;;;8.16;91.15;101308.78;5036253;28;20047;-65
2022/11/28 04:41:05;;;;;;;26.17;24.60;;;;;;;8.08;91.11;101323.09;5037690;28;20508;-65
2022/11/28 04:43:40;;;;;;;25.87;24.37;;;;;;;7.98;91.41;101311.75;5048368;28;20049;-65
2022/11/28 04:46:20;;;;;;;25.97;24.63;;;;;;;7.92;91.50;101323.84;5047843;28;20510;-65
2022/11/28 04:48:47;;;;;;;26.83;25.17;;;;;;;7.83;92.09;101310.31;5042144;28;20045;-64
2022/11/28 04:51:20;;;;;;;25.83;24.27;;;;;;;7.93;92.18;101319.97;5037770;28;20353;-65
2022/11/28 04:53:58;;;;;;;25.03;23.43;;;;;;;7.93;92.23;101326.41;5040191;28;20057;-65
2022/11/28 04:56:56;;;;;;;28.43;26.33;;;;;;;7.95;92.20;101324.19;5033718;28;20053;-64
2022/11/28 04:59:25;;;;;;;27.03;25.20;;;;;;;8.15;92.35;101334.09;5035351;28;20064;-64
2022/11/28 05:01:54;;;;;;;25.75;24.15;;;;;;;8.21;92.33;101333.13;5042614;28;20093;-63
2022/11/28 05:04:21;;;;;;;25.37;23.80;;;;;;;8.22;92.12;101324.50;5039978;28;20040;-64
2022/11/28 05:06:48;;;;;;;27.27;25.40;;;;;;;8.20;92.21;101339.75;5054586;28;20053;-64
2022/11/28 05:09:15;;;;;;;23.83;22.43;;;;;;;8.10;91.90;101325.63;5047957;28;20060;-65
2022/11/28 05:11:42;;;;;;;23.00;21.70;;;;;;;8.11;92.05;101342.09;5034057;28;20424;-65
2022/11/28 05:14:08;;;;;;;24.37;23.07;;;;;;;8.06;92.17;101341.97;5042076;28;20041;-65
2022/11/28 05:16:35;;;;;;;24.60;23.00;;;;;;;8.11;92.27;101344.88;5052512;28;20056;-65
2022/11/28 05:19:02;;;;;;;23.73;22.50;;;;;;;8.13;92.06;101336.25;5049157;28;20042;-65
2022/11/28 05:21:29;;;;;;;23.80;22.20;;;;;;;8.16;92.10;101328.28;5032763;28;20064;-64
2022/11/28 05:23:56;;;;;;;23.83;22.63;;;;;;;8.20;91.92;101326.69;5041052;28;20049;-63
2022/11/28 05:26:22;;;;;;;23.77;22.13;;;;;;;8.27;91.83;101335.75;5041512;28;20045;-64
2022/11/28 05:28:51;;;;;;;25.27;23.87;;;;;;;8.33;91.77;101320.00;5049434;28;20056;-65
2022/11/28 05:31:20;;;;;;;23.17;21.83;;;;;;;8.49;91.69;101333.16;5047054;28;20049;-64
2022/11/28 05:33:47;;;;;;;23.40;21.90;;;;;;;8.51;91.47;101336.56;5033860;28;20096;-64
2022/11/28 05:36:14;;;;;;;22.87;21.67;;;;;;;8.49;91.36;101349.88;5039553;28;20049;-64
2022/11/28 05:38:42;;;;;;;23.23;21.93;;;;;;;8.49;91.26;101351.81;5045012;28;20072;-64
2022/11/28 05:41:16;;;;;;;23.43;21.83;;;;;;;8.44;90.95;101351.69;5044647;28;20060;-64
2022/11/28 05:43:43;;;;;;;23.33;22.13;;;;;;;8.34;90.94;101341.16;5032746;28;20053;-65
2022/11/28 05:46:10;;;;;;;23.93;22.20;;;;;;;8.30;90.86;101349.16;5033120;28;20042;-64
2022/11/28 05:48:37;;;;;;;22.03;20.87;;;;;;;8.26;91.03;101359.09;5033095;28;20053;-65
2022/11/28 05:51:04;;;;;;;24.20;22.70;;;;;;;8.16;90.90;101347.75;5044226;28;20488;-64
2022/11/28 05:53:31;;;;;;;22.10;21.10;;;;;;;8.07;91.17;101346.44;5071366;28;20041;-65
2022/11/28 05:55:58;;;;;;;21.53;20.53;;;;;;;8.07;91.18;101354.81;5038653;28;20041;-66
2022/11/28 05:58:25;;;;;;;22.70;21.60;;;;;;;7.96;91.22;101352.84;5043590;28;20053;-63
2022/11/28 06:00:52;;;;;;;26.50;24.70;;;;;;;8.04;91.34;101366.41;5041547;28;20347;-65
2022/11/28 06:03:21;;;;;;;25.97;24.17;;;;;;;8.04;91.36;101367.25;5034777;28;20049;-65
2022/11/28 06:05:48;;;;;;;26.07;24.47;;;;;;;8.01;91.24;101352.97;5041786;28;20049;-66
2022/11/28 06:08:15;;;;;;;23.63;22.43;;;;;;;8.10;91.19;101376.53;5050468;28;20049;-65
2022/11/28 06:10:42;;;;;;;24.97;23.63;;;;;;;8.12;91.40;101374.38;5050116;28;20045;-65
2022/11/28 06:13:09;;;;;;;26.17;24.57;;;;;;;8.12;91.48;101379.94;5049273;28;20041;-65
2022/11/28 06:15:35;;;;;;;25.40;23.97;;;;;;;8.06;91.22;101380.91;5035549;28;20049;-65
2022/11/28 06:18:04;;;;;;;24.20;22.90;;;;;;;7.86;91.67;101370.16;5033486;28;20140;-65
2022/11/28 06:20:34;;;;;;;29.70;28.03;;;;;;;7.89;91.55;101382.72;5035417;28;20049;-65
2022/11/28 06:23:01;;;;;;;26.50;25.00;;;;;;;7.92;91.80;101388.66;5034425;28;20049;-65
2022/11/28 06:25:28;;;;;;;25.57;23.90;;;;;;;7.96;92.27;101391.78;5039654;28;20420;-65
2022/11/28 06:27:55;;;;;;;26.93;25.37;;;;;;;7.94;92.01;101394.00;5047839;28;20499;-64
2022/11/28 06:30:22;;;;;;;25.37;24.03;;;;;;;7.87;92.02;101393.28;5015077;28;20121;-65
2022/11/28 06:32:48;;;;;;;24.83;23.27;;;;;;;7.87;92.30;101396.06;5039463;28;20045;-65
2022/11/28 06:35:15;;;;;;;24.77;23.27;;;;;;;8.00;92.40;101399.44;5040976;28;20577;-65
2022/11/28 06:37:42;;;;;;;23.93;22.77;;;;;;;8.08;92.36;101401.00;5044481;28;20068;-65
2022/11/28 06:40:09;;;;;;;23.63;22.50;;;;;;;8.08;92.12;101395.44;5041144;28;20056;-65
2022/11/28 06:42:36;;;;;;;34.53;33.00;;;;;;;8.15;92.12;101390.56;5031797;28;20041;-65
2022/11/28 06:45:04;;;;;;;23.73;22.33;;;;;;;8.25;91.90;101403.88;5037190;28;20129;-65
2022/11/28 06:47:31;;;;;;;23.37;21.87;;;;;;;8.21;91.84;101389.59;5040968;28;20155;-65
2022/11/28 06:49:58;;;;;;;24.30;23.00;;;;;;;8.32;91.70;101407.38;5049938;28;20049;-65
2022/11/28 06:52:25;;;;;;;23.07;21.73;;;;;;;8.28;91.48;101401.44;5041428;28;20046;-63
2022/11/28 06:54:52;;;;;;;24.03;22.60;;;;;;;8.21;91.23;101403.53;5043138;28;20069;-66
2022/11/28 06:57:18;;;;;;;22.60;21.50;;;;;;;8.21;91.22;101403.53;5035751;28;20053;-64
2022/11/28 06:59:47;;;;;;;24.77;23.47;;;;;;;8.15;91.18;101406.44;5043986;28;20053;-64
2022/11/28 07:02:14;;;;;;;35.77;34.07;;;;;;;7.98;91.31;101400.75;5035706;28;20403;-65
2022/11/28 07:04:41;;;;;;;25.77;23.57;;;;;;;7.96;91.35;101403.75;5035456;28;20045;-64
2022/11/28 07:07:07;;;;;;;26.13;24.67;;;;;;;7.87;91.64;101407.19;5033946;28;20053;-65
2022/11/28 07:09:40;;;;;;;26.37;24.97;;;;;;;7.83;91.64;101412.38;5040235;28;20045;-65
2022/11/28 07:12:07;;;;;;;24.70;23.30;;;;;;;7.75;91.72;101405.22;5034124;28;20053;-64
2022/11/28 07:14:35;;;;;;;25.10;23.60;;;;;;;7.77;92.07;101403.06;5034680;28;20056;-65
2022/11/28 07:17:02;;;;;;;25.53;23.90;;;;;;;7.83;92.29;101429.91;5031695;28;20057;-66
2022/11/28 07:19:29;;;;;;;26.83;25.13;;;;;;;7.89;92.29;101424.44;5036260;28;20122;-65
2022/11/28 07:21:56;;;;;;;30.97;29.07;;;;;;;7.97;92.37;101430.50;5042151;28;20061;-67
2022/11/28 07:24:22;;;;;;;30.30;28.30;;;;;;;8.14;92.53;101433.41;5033582;28;20475;-66
2022/11/28 07:26:49;;;;;;;30.90;28.43;;;;;;;8.36;92.43;101432.78;5039693;28;20041;-66
2022/11/28 07:29:17;;;;;;;30.67;28.40;;;;;;;8.48;92.33;101439.22;5034188;28;20408;-65
2022/11/28 07:31:44;;;;;;;28.73;26.93;;;;;;;8.61;92.65;101425.00;5040909;28;20068;-65
2022/11/28 07:34:11;;;;;;;27.43;25.73;;;;;;;8.80;92.47;101431.25;5037795;28;20041;-65
2022/11/28 07:36:38;;;;;;;41.97;39.80;;;;;;;8.83;91.72;101439.09;5036063;28;20052;-67
2022/11/28 07:39:07;;;;;;;45.00;42.57;;;;;;;8.81;91.59;101432.94;5046743;28;20049;-65
2022/11/28 07:41:34;;;;;;;35.73;33.90;;;;;;;8.75;91.22;101433.91;5045486;28;20049;-65
2022/11/28 07:44:03;;;;;;;48.30;45.80;;;;;;;8.67;91.14;101426.78;5037260;28;20056;-65
2022/11/28 07:46:30;;;;;;;45.30;42.87;;;;;;;8.57;90.98;101431.31;5037819;28;20041;-65
2022/11/28 07:48:58;;;;;;;24.30;22.97;;;;;;;8.51;90.88;101427.56;5036398;28;20045;-66
2022/11/28 07:51:27;;;;;;;51.93;49.60;;;;;;;8.46;90.61;101422.72;5038781;28;20053;-65
2022/11/28 07:53:55;;;;;;;26.52;25.02;;;;;;;8.41;90.61;101430.13;5035497;28;20045;-65
2022/11/28 07:56:27;;;;;;;39.45;37.55;;;;;;;8.38;90.62;101433.41;5045330;28;20415;-66
2022/11/28 07:59:10;;;;;;;26.67;25.27;;;;;;;8.24;90.71;101413.31;5044129;28;20511;-65
2022/11/28 08:01:37;;;;;;;25.60;24.20;;;;;;;8.37;90.58;101426.09;5036988;28;20072;-66
2022/11/28 08:04:06;;;;;;;25.63;24.33;;;;;;;8.37;90.66;101415.81;5039717;28;20037;-66
2022/11/28 08:06:36;;;;;;;26.17;24.73;;;;;;;8.46;90.73;101419.09;5039690;28;20053;-65
2022/11/28 08:09:05;;;;;;;27.43;25.93;;;;;;;8.48;90.79;101416.94;5046593;28;20412;-66
2022/11/28 08:11:33;;;;;;;26.17;24.87;;;;;;;8.53;90.77;101425.38;5034501;28;20061;-65
2022/11/28 08:14:00;;;;;;;26.70;24.90;;;;;;;8.56;91.26;101412.91;5034581;28;20046;-66
2022/11/28 08:16:29;;;;;;;43.00;40.87;;;;;;;8.81;91.12;101429.28;5043089;28;20040;-65
2022/11/28 08:18:58;;;;;;;25.40;23.80;;;;;;;8.95;91.25;101434.31;5055556;28;20045;-65
2022/11/28 08:21:28;;;;;;;45.90;43.57;;;;;;;9.14;91.35;101437.75;5047381;28;20436;-65
2022/11/28 08:23:58;;;;;;;23.58;22.08;;;;;;;9.31;91.13;101442.53;5035481;28;20050;-65
2022/11/28 08:26:26;;;;;;;42.47;40.47;;;;;;;9.49;91.17;101445.09;5034112;28;20057;-66
2022/11/28 08:28:57;;;;;;;32.43;30.43;;;;;;;9.66;91.21;101428.38;5039364;28;20103;-65
2022/11/28 08:31:27;;;;;;;21.93;20.63;;;;;;;9.86;90.56;101450.19;5048621;28;20045;-65
2022/11/28 08:33:55;;;;;;;;;;;;;;;9.73;89.77;101452.19;5037579;28;20064;-65
2022/11/28 08:36:22;;;;;;;23.20;21.77;;;;;;;9.99;90.82;101458.22;5049900;28;21454;-65
2022/11/28 08:38:49;;;;;;;22.17;20.60;;;;;;;10.01;89.98;101464.38;5039256;28;20046;-66
2022/11/28 08:41:36;;;;;;;22.03;20.57;;;;;;;9.65;89.06;101438.69;5044142;28;20106;-65
2022/11/28 08:44:03;;;;;;;22.27;20.90;;;;;;;9.62;89.20;101455.91;5050785;28;20064;-65
2022/11/28 08:46:30;;;;;;;21.30;19.77;;;;;;;9.57;89.03;101461.44;5054948;28;20064;-65
2022/11/28 08:49:00;;;;;;;26.90;25.20;;;;;;;9.56;89.13;101473.66;5055062;28;20057;-65
2022/11/28 08:51:30;;;;;;;24.27;23.17;;;;;;;9.46;88.77;101474.31;5051899;28;20056;-65
2022/11/28 08:53:57;;;;;;;25.17;23.67;;;;;;;9.45;88.89;101471.78;5035180;28;20041;-65
2022/11/28 08:56:26;;;;;;;22.97;21.67;;;;;;;9.43;89.22;101479.53;5038316;28;20056;-65
2022/11/28 08:58:53;;;;;;;21.67;20.47;;;;;;;9.43;89.13;101479.53;5042401;28;20049;-65
2022/11/28 09:01:23;;;;;;;23.17;21.67;;;;;;;9.45;89.28;101478.19;5035128;28;20053;-65
2022/11/28 09:03:51;;;;;;;24.65;22.95;;;;;;;9.73;90.32;101485.69;5045540;28;20062;-65
2022/11/28 09:06:19;;;;;;;25.33;23.27;;;;;;;10.33;92.11;101488.91;5047714;28;20057;-66
2022/11/28 09:08:47;;;;;;;24.17;22.30;;;;;;;11.06;93.00;101492.41;5042463;28;20072;-66
2022/11/28 09:11:16;;;;;;;26.27;24.67;;;;;;;11.55;93.30;101495.19;5036281;28;20512;-66
2022/11/28 09:13:44;;;;;;;24.80;22.80;;;;;;;12.36;95.20;101488.63;5036648;28;20045;-65
2022/11/28 09:16:11;;;;;;;39.93;37.60;;;;;;;13.32;96.62;101496.69;5035407;28;20045;-65
2022/11/28 09:18:38;;;;;;;23.40;21.80;;;;;;;14.26;97.18;101499.34;5034460;28;20050;-66
2022/11/28 09:21:11;;;;;;;22.63;21.23;;;;;;;15.02;96.36;101501.16;5040781;28;20068;-66
2022/11/28 09:23:40;;;;;;;21.77;20.55;;;;;;;15.79;96.41;101508.06;5045998;28;20056;-66
2022/11/28 09:26:14;;;;;;;32.20;30.52;;;;;;;16.37;94.92;101503.63;5054455;28;20045;-66
2022/11/28 09:28:41;;;;;;;21.33;20.13;;;;;;;16.78;94.40;101482.34;5052564;28;20045;-66
2022/11/28 09:31:08;;;;;;;21.00;19.88;;;;;;;17.03;92.68;101484.03;5034755;28;20412;-66
2022/11/28 09:33:35;;;;;;;22.00;20.60;;;;;;;16.88;90.88;101511.59;5035207;28;20536;-65
2022/11/28 09:36:08;;;;;;;23.33;21.85;;;;;;;16.10;89.93;101493.72;5039633;28;20535;-66
2022/11/28 09:38:35;;;;;;;23.20;21.52;;;;;;;15.28;89.17;101511.16;5046164;28;20049;-66
2022/11/28 09:41:22;;;;;;;22.58;21.35;;;;;;;15.10;89.24;101500.53;5041727;28;20131;-67
2022/11/28 09:43:49;;;;;;;22.38;20.88;;;;;;;15.80;90.71;101512.56;5036419;28;20072;-66
2022/11/28 09:46:30;;;;;;;37.95;35.80;;;;;;;16.30;89.64;101518.06;5041144;28;20045;-66
2022/11/28 09:49:00;;;;;;;22.33;20.73;;;;;;;17.00;87.69;101507.22;5033155;28;20136;-66
2022/11/28 09:51:32;;;;;;;27.13;25.42;;;;;;;17.40;88.45;101527.59;5045090;28;20389;-67
2022/11/28 09:54:26;;;;;;;32.40;30.58;;;;;;;17.99;90.25;101516.88;5034616;28;20045;-67
2022/11/28 09:56:55;;;;;;;32.40;28.35;;;;;;;18.64;88.67;101522.53;5035216;28;20045;-65
2022/11/28 09:59:26;;;;;;;32.55;30.60;;;;;;;19.18;87.94;101520.91;5044168;28;20049;-67
2022/11/28 10:02:08;;;;;;;38.40;36.20;;;;;;;19.28;88.35;101511.38;5033902;28;20072;-66
2022/11/28 10:05:11;;;;;;;22.95;21.25;;;;;;;19.22;82.87;101517.47;5033979;28;20056;-66
2022/11/28 10:07:45;;;;;;;30.63;28.83;;;;;;;18.96;84.81;101517.13;5042400;28;20391;-67
2022/11/28 10:10:20;;;;;;;22.38;20.77;;;;;;;18.89;83.20;101528.88;5037218;28;20539;-66
2022/11/28 10:13:12;;;;;;;23.10;21.73;;;;;;;18.55;80.93;101527.22;5049886;28;20049;-66
2022/11/28 10:15:58;;;;;;;34.75;32.72;;;;;;;18.55;79.94;101518.72;5034053;28;20071;-66
2022/11/28 10:18:41;;;;;;;20.83;19.15;;;;;;;18.33;80.19;101515.75;5034024;28;20045;-66
2022/11/28 10:21:26;;;;;;;23.77;22.27;;;;;;;18.65;80.77;101518.53;5038752;28;20049;-65
2022/11/28 10:23:58;;;;;;;21.70;20.33;;;;;;;19.06;82.49;101520.59;5040952;28;20060;-66
2022/11/28 10:26:34;;;;;;;19.90;18.70;;;;;;;18.45;81.54;101531.06;5033111;28;20064;-67
2022/11/28 10:29:39;;;;;;;20.50;19.23;;;;;;;16.78;76.66;101538.78;5032614;28;20049;-67
2022/11/28 10:32:16;;;;;;;21.88;20.20;;;;;;;15.84;78.42;101543.81;5021340;28;20045;-66
2022/11/28 10:34:59;;;;;;;22.25;20.60;;;;;;;15.15;79.05;101546.38;5036504;28;20045;-67
2022/11/28 10:37:29;;;;;;;32.90;31.13;;;;;;;14.98;80.98;101539.44;5040403;28;20045;-66
2022/11/28 10:40:49;;;;;;;21.90;20.50;;;;;;;14.32;79.32;101532.75;5037615;28;20416;-66
2022/11/28 10:43:58;;;;;;;21.93;20.53;;;;;;;14.27;83.31;101552.44;5031754;28;20152;-67
2022/11/28 10:46:59;;;;;;;21.67;19.97;;;;;;;14.15;80.41;101540.63;5029107;28;20076;-67
2022/11/28 10:49:32;;;;;;;20.33;18.92;;;;;;;13.87;80.95;101556.88;5034023;28;20432;-66
2022/11/28 10:52:16;;;;;;;22.27;20.27;;;;;;;13.60;81.55;101551.50;5032842;28;20049;-67
2022/11/28 10:54:58;;;;;;;21.30;19.65;;;;;;;13.56;82.46;101563.56;5035271;28;20049;-66
2022/11/28 10:57:41;;;;;;;34.33;32.22;;;;;;;13.47;82.04;101558.50;5034532;28;20049;-66
2022/11/28 11:00:12;;;;;;;22.15;20.33;;;;;;;13.44;82.59;101566.63;5032595;28;20064;-66
2022/11/28 11:02:44;;;;;;;27.42;24.77;;;;;;;13.38;82.88;101579.78;5036374;28;20049;-67
2022/11/28 11:05:18;;;;;;;27.80;25.95;;;;;;;13.44;83.76;101584.28;5035013;28;20041;-67
2022/11/28 11:07:54;;;;;;;21.38;19.92;;;;;;;13.51;84.05;101579.25;5036496;28;20423;-66
2022/11/28 11:10:48;;;;;;;26.38;24.83;;;;;;;13.60;84.48;101578.72;5031469;28;20053;-67
2022/11/28 11:13:19;;;;;;;20.48;18.75;;;;;;;13.66;84.78;101574.81;5035844;28;20475;-66
2022/11/28 11:15:53;;;;;;;27.15;25.73;;;;;;;13.88;85.21;101568.94;5053427;28;20045;-66
2022/11/28 11:18:33;;;;;;;21.17;19.58;;;;;;;14.00;85.64;101569.53;5049171;28;20049;-66
2022/11/28 11:21:16;;;;;;;31.98;29.90;;;;;;;14.03;85.90;101569.00;5036374;28;20049;-66
2022/11/28 11:23:44;;;;;;;35.78;32.60;;;;;;;14.02;85.99;101561.69;5043012;28;20480;-67
2022/11/28 11:26:25;;;;;;;22.30;20.75;;;;;;;13.92;85.90;101551.28;5043093;28;20051;-66
2022/11/28 11:28:52;;;;;;;20.98;19.23;;;;;;;13.91;85.80;101537.50;5038046;28;20064;-67
2022/11/28 11:31:29;;;;;;;21.88;19.90;;;;;;;13.88;85.72;101533.31;5042261;28;20049;-66
2022/11/28 11:34:13;;;;;;;20.85;19.23;;;;;;;13.92;86.11;101517.59;5047637;28;20076;-66
2022/11/28 11:36:41;;;;;;;21.27;19.42;;;;;;;14.21;87.18;101520.66;5037850;28;20050;-65
2022/11/28 11:39:11;;;;;;;19.98;18.55;;;;;;;14.46;86.68;101500.16;5038893;28;20045;-66
2022/11/28 11:41:46;;;;;;;19.80;18.42;;;;;;;14.67;87.40;101506.59;5035910;28;20049;-66